sensor_id;sensor_type;location;lat;lon;timestamp;P1;durP1;ratioP1;P2;durP2;ratioP2
81621;SDS011;71029;50.742;7.090;2023-07-29T00:00:02;2.65;;;1.00;;
81621;SDS011;71029;50.742;7.090;2023-07-29T00:02:29;2.72;;;1.10;;
81621;SDS011;71029;50.742;7.090;2023-07-29T00:04:57;1.70;;;1.00;;
81621;SDS011;71029;50.742;7.090;2023-07-29T00:07:23;2.08;;;1.08;;
81621;SDS011;71029;50.742;7.090;2023-07-29T00:09:50;1.55;;;0.80;;
81621;SDS011;71029;50.742;7.090;2023-07-29T00:12:16;2.03;;;0.85;;
81621;SDS011;71029;50.742;7.090;2023-07-29T00:14:43;2.13;;;1.00;;
81621;SDS011;71029;50.742;7.090;2023-07-29T00:17:09;1.20;;;0.73;;
81621;SDS011;71029;50.742;7.090;2023-07-29T00:19:36;2.38;;;1.15;;
81621;SDS011;71029;50.742;7.090;2023-07-29T00:22:02;1.25;;;0.80;;
81621;SDS011;71029;50.742;7.090;2023-07-29T00:24:29;2.28;;;0.82;;
81621;SDS011;71029;50.742;7.090;2023-07-29T00:26:55;1.80;;;0.82;;
81621;SDS011;71029;50.742;7.090;2023-07-29T00:29:22;1.75;;;0.80;;
81621;SDS011;71029;50.742;7.090;2023-07-29T00:31:48;5.25;;;0.93;;
81621;SDS011;71029;50.742;7.090;2023-07-29T00:34:15;3.15;;;0.93;;
81621;SDS011;71029;50.742;7.090;2023-07-29T00:36:45;1.00;;;0.70;;
81621;SDS011;71029;50.742;7.090;2023-07-29T00:39:12;1.77;;;0.88;;
81621;SDS011;71029;50.742;7.090;2023-07-29T00:41:39;1.40;;;1.05;;
81621;SDS011;71029;50.742;7.090;2023-07-29T00:44:06;2.15;;;0.68;;
81621;SDS011;71029;50.742;7.090;2023-07-29T00:46:33;1.42;;;0.80;;
81621;SDS011;71029;50.742;7.090;2023-07-29T00:49:02;1.75;;;0.90;;
81621;SDS011;71029;50.742;7.090;2023-07-29T00:51:29;1.38;;;0.70;;
81621;SDS011;71029;50.742;7.090;2023-07-29T00:53:55;1.63;;;0.73;;
81621;SDS011;71029;50.742;7.090;2023-07-29T00:56:22;3.90;;;0.77;;
81621;SDS011;71029;50.742;7.090;2023-07-29T00:58:49;1.60;;;0.85;;
81621;SDS011;71029;50.742;7.090;2023-07-29T01:01:17;2.17;;;0.98;;
81621;SDS011;71029;50.742;7.090;2023-07-29T01:03:44;1.40;;;1.05;;
81621;SDS011;71029;50.742;7.090;2023-07-29T01:06:13;1.40;;;0.90;;
81621;SDS011;71029;50.742;7.090;2023-07-29T01:11:35;1.33;;;0.60;;
81621;SDS011;71029;50.742;7.090;2023-07-29T01:14:14;1.33;;;0.70;;
81621;SDS011;71029;50.742;7.090;2023-07-29T01:17:03;1.38;;;0.70;;
81621;SDS011;71029;50.742;7.090;2023-07-29T01:22:09;1.55;;;0.85;;
81621;SDS011;71029;50.742;7.090;2023-07-29T01:24:37;1.45;;;0.70;;
81621;SDS011;71029;50.742;7.090;2023-07-29T01:27:03;1.40;;;0.70;;
81621;SDS011;71029;50.742;7.090;2023-07-29T01:29:30;2.05;;;0.88;;
81621;SDS011;71029;50.742;7.090;2023-07-29T01:32:00;1.13;;;0.32;;
81621;SDS011;71029;50.742;7.090;2023-07-29T01:34:35;1.55;;;0.52;;
81621;SDS011;71029;50.742;7.090;2023-07-29T01:37:08;2.25;;;1.00;;
81621;SDS011;71029;50.742;7.090;2023-07-29T01:39:39;3.05;;;0.65;;
81621;SDS011;71029;50.742;7.090;2023-07-29T01:42:06;2.97;;;0.73;;
81621;SDS011;71029;50.742;7.090;2023-07-29T01:44:33;2.15;;;0.70;;
81621;SDS011;71029;50.742;7.090;2023-07-29T01:47:01;1.92;;;0.90;;
81621;SDS011;71029;50.742;7.090;2023-07-29T01:49:28;1.85;;;0.90;;
81621;SDS011;71029;50.742;7.090;2023-07-29T01:51:54;1.75;;;1.15;;
81621;SDS011;71029;50.742;7.090;2023-07-29T01:54:21;1.45;;;1.20;;
81621;SDS011;71029;50.742;7.090;2023-07-29T01:56:47;1.05;;;0.70;;
81621;SDS011;71029;50.742;7.090;2023-07-29T01:59:14;1.48;;;0.80;;
81621;SDS011;71029;50.742;7.090;2023-07-29T02:01:42;1.70;;;0.90;;
81621;SDS011;71029;50.742;7.090;2023-07-29T02:04:08;1.50;;;0.68;;
81621;SDS011;71029;50.742;7.090;2023-07-29T02:06:35;1.20;;;0.80;;
81621;SDS011;71029;50.742;7.090;2023-07-29T02:09:02;1.00;;;0.63;;
81621;SDS011;71029;50.742;7.090;2023-07-29T02:11:30;1.00;;;0.70;;
81621;SDS011;71029;50.742;7.090;2023-07-29T02:13:57;1.30;;;0.68;;
81621;SDS011;71029;50.742;7.090;2023-07-29T02:16:23;0.85;;;0.57;;
81621;SDS011;71029;50.742;7.090;2023-07-29T02:18:50;2.10;;;0.70;;
81621;SDS011;71029;50.742;7.090;2023-07-29T02:21:19;1.63;;;0.52;;
81621;SDS011;71029;50.742;7.090;2023-07-29T02:23:46;1.80;;;0.65;;
81621;SDS011;71029;50.742;7.090;2023-07-29T02:26:12;1.75;;;1.02;;
81621;SDS011;71029;50.742;7.090;2023-07-29T02:28:39;1.00;;;0.40;;
81621;SDS011;71029;50.742;7.090;2023-07-29T02:31:24;0.93;;;0.70;;
81621;SDS011;71029;50.742;7.090;2023-07-29T02:33:51;1.73;;;0.73;;
81621;SDS011;71029;50.742;7.090;2023-07-29T02:36:18;0.80;;;0.45;;
81621;SDS011;71029;50.742;7.090;2023-07-29T02:38:44;1.52;;;0.75;;
81621;SDS011;71029;50.742;7.090;2023-07-29T02:41:11;1.30;;;0.70;;
81621;SDS011;71029;50.742;7.090;2023-07-29T02:43:47;1.50;;;0.73;;
81621;SDS011;71029;50.742;7.090;2023-07-29T02:46:15;1.58;;;0.82;;
81621;SDS011;71029;50.742;7.090;2023-07-29T02:48:42;0.80;;;0.30;;
81621;SDS011;71029;50.742;7.090;2023-07-29T02:51:10;1.40;;;0.70;;
81621;SDS011;71029;50.742;7.090;2023-07-29T02:53:37;1.90;;;0.63;;
81621;SDS011;71029;50.742;7.090;2023-07-29T02:56:04;1.98;;;0.57;;
81621;SDS011;71029;50.742;7.090;2023-07-29T02:58:30;1.00;;;0.45;;
81621;SDS011;71029;50.742;7.090;2023-07-29T03:01:01;1.25;;;0.40;;
81621;SDS011;71029;50.742;7.090;2023-07-29T03:03:29;1.08;;;0.50;;
81621;SDS011;71029;50.742;7.090;2023-07-29T03:05:58;0.90;;;0.50;;
81621;SDS011;71029;50.742;7.090;2023-07-29T03:08:29;0.85;;;0.38;;
81621;SDS011;71029;50.742;7.090;2023-07-29T03:10:56;1.13;;;0.52;;
81621;SDS011;71029;50.742;7.090;2023-07-29T03:13:23;1.10;;;0.55;;
81621;SDS011;71029;50.742;7.090;2023-07-29T03:15:50;1.13;;;0.43;;
81621;SDS011;71029;50.742;7.090;2023-07-29T03:18:17;1.20;;;0.63;;
81621;SDS011;71029;50.742;7.090;2023-07-29T03:20:43;1.05;;;0.40;;
81621;SDS011;71029;50.742;7.090;2023-07-29T03:23:10;0.80;;;0.35;;
81621;SDS011;71029;50.742;7.090;2023-07-29T03:25:36;0.90;;;0.60;;
81621;SDS011;71029;50.742;7.090;2023-07-29T03:28:03;2.28;;;0.77;;
81621;SDS011;71029;50.742;7.090;2023-07-29T03:30:29;1.23;;;0.30;;
81621;SDS011;71029;50.742;7.090;2023-07-29T03:32:56;0.73;;;0.38;;
81621;SDS011;71029;50.742;7.090;2023-07-29T03:35:22;0.90;;;0.52;;
81621;SDS011;71029;50.742;7.090;2023-07-29T03:37:49;1.27;;;0.30;;
81621;SDS011;71029;50.742;7.090;2023-07-29T03:40:15;1.13;;;0.35;;
81621;SDS011;71029;50.742;7.090;2023-07-29T03:42:42;0.93;;;0.28;;
81621;SDS011;71029;50.742;7.090;2023-07-29T03:45:09;0.80;;;0.20;;
81621;SDS011;71029;50.742;7.090;2023-07-29T03:47:36;1.50;;;0.47;;
81621;SDS011;71029;50.742;7.090;2023-07-29T03:50:02;1.15;;;0.40;;
81621;SDS011;71029;50.742;7.090;2023-07-29T03:52:29;2.78;;;0.30;;
81621;SDS011;71029;50.742;7.090;2023-07-29T03:54:55;0.73;;;0.20;;
81621;SDS011;71029;50.742;7.090;2023-07-29T03:57:22;0.80;;;0.20;;
81621;SDS011;71029;50.742;7.090;2023-07-29T03:59:48;0.70;;;0.13;;
81621;SDS011;71029;50.742;7.090;2023-07-29T04:02:15;1.17;;;0.13;;
81621;SDS011;71029;50.742;7.090;2023-07-29T04:04:41;2.15;;;0.32;;
81621;SDS011;71029;50.742;7.090;2023-07-29T04:07:10;1.10;;;0.52;;
81621;SDS011;71029;50.742;7.090;2023-07-29T04:09:36;1.30;;;0.40;;
81621;SDS011;71029;50.742;7.090;2023-07-29T04:12:03;2.45;;;0.32;;
81621;SDS011;71029;50.742;7.090;2023-07-29T04:14:30;1.17;;;0.22;;
81621;SDS011;71029;50.742;7.090;2023-07-29T04:16:57;2.28;;;0.47;;
81621;SDS011;71029;50.742;7.090;2023-07-29T04:19:24;1.70;;;0.38;;
81621;SDS011;71029;50.742;7.090;2023-07-29T04:21:50;1.58;;;0.30;;
81621;SDS011;71029;50.742;7.090;2023-07-29T04:24:17;1.13;;;0.32;;
81621;SDS011;71029;50.742;7.090;2023-07-29T04:26:43;1.45;;;0.30;;
81621;SDS011;71029;50.742;7.090;2023-07-29T04:29:11;1.33;;;0.25;;
81621;SDS011;71029;50.742;7.090;2023-07-29T04:31:38;2.28;;;0.32;;
81621;SDS011;71029;50.742;7.090;2023-07-29T04:34:04;1.30;;;0.28;;
81621;SDS011;71029;50.742;7.090;2023-07-29T04:36:31;1.05;;;0.30;;
81621;SDS011;71029;50.742;7.090;2023-07-29T04:38:58;2.80;;;0.30;;
81621;SDS011;71029;50.742;7.090;2023-07-29T04:41:24;1.35;;;0.25;;
81621;SDS011;71029;50.742;7.090;2023-07-29T04:43:51;1.30;;;0.30;;
81621;SDS011;71029;50.742;7.090;2023-07-29T04:46:18;0.68;;;0.10;;
81621;SDS011;71029;50.742;7.090;2023-07-29T04:48:45;1.33;;;0.50;;
81621;SDS011;71029;50.742;7.090;2023-07-29T04:51:11;2.10;;;0.40;;
81621;SDS011;71029;50.742;7.090;2023-07-29T04:53:38;2.00;;;0.35;;
81621;SDS011;71029;50.742;7.090;2023-07-29T04:56:04;2.30;;;0.40;;
81621;SDS011;71029;50.742;7.090;2023-07-29T04:58:31;1.02;;;0.50;;
81621;SDS011;71029;50.742;7.090;2023-07-29T05:01:01;0.82;;;0.32;;
81621;SDS011;71029;50.742;7.090;2023-07-29T05:03:29;1.45;;;0.35;;
81621;SDS011;71029;50.742;7.090;2023-07-29T05:05:55;1.77;;;0.50;;
81621;SDS011;71029;50.742;7.090;2023-07-29T05:08:23;1.20;;;0.50;;
81621;SDS011;71029;50.742;7.090;2023-07-29T05:10:50;0.88;;;0.35;;
81621;SDS011;71029;50.742;7.090;2023-07-29T05:13:18;2.65;;;0.55;;
81621;SDS011;71029;50.742;7.090;2023-07-29T05:15:46;1.45;;;0.73;;
81621;SDS011;71029;50.742;7.090;2023-07-29T05:18:14;2.38;;;0.60;;
81621;SDS011;71029;50.742;7.090;2023-07-29T05:20:40;0.73;;;0.30;;
81621;SDS011;71029;50.742;7.090;2023-07-29T05:23:07;1.65;;;0.52;;
81621;SDS011;71029;50.742;7.090;2023-07-29T05:25:33;2.45;;;0.75;;
81621;SDS011;71029;50.742;7.090;2023-07-29T05:28:03;5.35;;;0.43;;
81621;SDS011;71029;50.742;7.090;2023-07-29T05:30:30;1.50;;;0.55;;
81621;SDS011;71029;50.742;7.090;2023-07-29T05:33:06;2.75;;;0.32;;
81621;SDS011;71029;50.742;7.090;2023-07-29T05:35:35;2.88;;;1.13;;
81621;SDS011;71029;50.742;7.090;2023-07-29T05:38:03;4.55;;;0.65;;
81621;SDS011;71029;50.742;7.090;2023-07-29T05:40:31;2.63;;;0.80;;
81621;SDS011;71029;50.742;7.090;2023-07-29T05:42:57;6.43;;;1.45;;
81621;SDS011;71029;50.742;7.090;2023-07-29T05:45:24;2.78;;;0.85;;
81621;SDS011;71029;50.742;7.090;2023-07-29T05:47:51;5.80;;;1.02;;
81621;SDS011;71029;50.742;7.090;2023-07-29T05:50:18;5.60;;;0.90;;
81621;SDS011;71029;50.742;7.090;2023-07-29T05:52:44;4.38;;;0.75;;
81621;SDS011;71029;50.742;7.090;2023-07-29T05:55:11;4.03;;;0.93;;
81621;SDS011;71029;50.742;7.090;2023-07-29T05:57:37;3.72;;;0.70;;
81621;SDS011;71029;50.742;7.090;2023-07-29T06:02:33;5.32;;;0.93;;
81621;SDS011;71029;50.742;7.090;2023-07-29T06:04:59;3.33;;;1.10;;
81621;SDS011;71029;50.742;7.090;2023-07-29T06:07:27;4.43;;;1.17;;
81621;SDS011;71029;50.742;7.090;2023-07-29T06:09:56;3.10;;;0.85;;
81621;SDS011;71029;50.742;7.090;2023-07-29T06:12:23;2.88;;;1.13;;
81621;SDS011;71029;50.742;7.090;2023-07-29T06:14:50;3.22;;;0.80;;
81621;SDS011;71029;50.742;7.090;2023-07-29T06:17:16;3.45;;;1.05;;
81621;SDS011;71029;50.742;7.090;2023-07-29T06:19:43;2.60;;;0.80;;
81621;SDS011;71029;50.742;7.090;2023-07-29T06:22:09;3.20;;;0.80;;
81621;SDS011;71029;50.742;7.090;2023-07-29T06:24:36;3.22;;;0.65;;
81621;SDS011;71029;50.742;7.090;2023-07-29T06:27:02;3.15;;;0.90;;
81621;SDS011;71029;50.742;7.090;2023-07-29T06:29:29;3.42;;;0.70;;
81621;SDS011;71029;50.742;7.090;2023-07-29T06:31:56;1.88;;;0.73;;
81621;SDS011;71029;50.742;7.090;2023-07-29T06:34:22;1.98;;;0.68;;
81621;SDS011;71029;50.742;7.090;2023-07-29T06:36:52;4.18;;;0.98;;
81621;SDS011;71029;50.742;7.090;2023-07-29T06:39:18;4.32;;;1.52;;
81621;SDS011;71029;50.742;7.090;2023-07-29T06:41:45;4.03;;;0.82;;
81621;SDS011;71029;50.742;7.090;2023-07-29T06:44:11;2.03;;;0.82;;
81621;SDS011;71029;50.742;7.090;2023-07-29T06:46:37;3.58;;;0.77;;
81621;SDS011;71029;50.742;7.090;2023-07-29T06:49:05;3.40;;;0.90;;
81621;SDS011;71029;50.742;7.090;2023-07-29T06:51:32;3.60;;;1.02;;
81621;SDS011;71029;50.742;7.090;2023-07-29T06:54:03;3.88;;;1.02;;
81621;SDS011;71029;50.742;7.090;2023-07-29T06:56:30;5.28;;;0.93;;
81621;SDS011;71029;50.742;7.090;2023-07-29T06:58:56;4.25;;;0.80;;
81621;SDS011;71029;50.742;7.090;2023-07-29T07:01:23;2.92;;;0.90;;
81621;SDS011;71029;50.742;7.090;2023-07-29T07:03:50;4.28;;;1.30;;
81621;SDS011;71029;50.742;7.090;2023-07-29T07:06:16;4.07;;;0.93;;
81621;SDS011;71029;50.742;7.090;2023-07-29T07:08:43;8.30;;;1.33;;
81621;SDS011;71029;50.742;7.090;2023-07-29T07:11:10;6.00;;;1.05;;
81621;SDS011;71029;50.742;7.090;2023-07-29T07:13:36;5.22;;;1.60;;
81621;SDS011;71029;50.742;7.090;2023-07-29T07:16:03;5.03;;;0.95;;
81621;SDS011;71029;50.742;7.090;2023-07-29T07:18:30;8.13;;;1.30;;
81621;SDS011;71029;50.742;7.090;2023-07-29T07:20:56;8.40;;;1.33;;
81621;SDS011;71029;50.742;7.090;2023-07-29T07:23:23;7.03;;;1.02;;
81621;SDS011;71029;50.742;7.090;2023-07-29T07:25:49;6.18;;;1.27;;
81621;SDS011;71029;50.742;7.090;2023-07-29T07:28:16;9.32;;;1.40;;
81621;SDS011;71029;50.742;7.090;2023-07-29T07:30:42;6.07;;;1.60;;
81621;SDS011;71029;50.742;7.090;2023-07-29T07:33:09;6.82;;;1.50;;
81621;SDS011;71029;50.742;7.090;2023-07-29T07:35:35;7.03;;;1.45;;
81621;SDS011;71029;50.742;7.090;2023-07-29T07:38:02;9.02;;;1.60;;
81621;SDS011;71029;50.742;7.090;2023-07-29T07:40:30;5.68;;;1.88;;
81621;SDS011;71029;50.742;7.090;2023-07-29T07:42:57;13.95;;;1.83;;
81621;SDS011;71029;50.742;7.090;2023-07-29T07:45:24;13.98;;;2.72;;
81621;SDS011;71029;50.742;7.090;2023-07-29T07:47:54;16.50;;;1.58;;
81621;SDS011;71029;50.742;7.090;2023-07-29T07:50:20;8.27;;;1.95;;
81621;SDS011;71029;50.742;7.090;2023-07-29T07:52:47;6.10;;;1.40;;
81621;SDS011;71029;50.742;7.090;2023-07-29T07:55:13;8.70;;;2.08;;
81621;SDS011;71029;50.742;7.090;2023-07-29T07:57:40;7.10;;;1.55;;
81621;SDS011;71029;50.742;7.090;2023-07-29T08:00:06;9.55;;;1.77;;
81621;SDS011;71029;50.742;7.090;2023-07-29T08:02:33;7.65;;;1.50;;
81621;SDS011;71029;50.742;7.090;2023-07-29T08:05:00;8.52;;;1.83;;
81621;SDS011;71029;50.742;7.090;2023-07-29T08:07:26;11.73;;;2.58;;
81621;SDS011;71029;50.742;7.090;2023-07-29T08:09:52;5.97;;;1.80;;
81621;SDS011;71029;50.742;7.090;2023-07-29T08:12:19;6.50;;;1.38;;
81621;SDS011;71029;50.742;7.090;2023-07-29T08:14:45;6.25;;;1.52;;
81621;SDS011;71029;50.742;7.090;2023-07-29T08:17:12;7.07;;;1.60;;
81621;SDS011;71029;50.742;7.090;2023-07-29T08:19:38;10.35;;;1.40;;
81621;SDS011;71029;50.742;7.090;2023-07-29T08:22:05;9.45;;;1.30;;
81621;SDS011;71029;50.742;7.090;2023-07-29T08:24:32;3.65;;;1.15;;
81621;SDS011;71029;50.742;7.090;2023-07-29T08:26:58;10.38;;;1.60;;
81621;SDS011;71029;50.742;7.090;2023-07-29T08:29:24;4.72;;;1.20;;
81621;SDS011;71029;50.742;7.090;2023-07-29T08:31:51;3.47;;;0.93;;
81621;SDS011;71029;50.742;7.090;2023-07-29T08:34:17;6.38;;;1.27;;
81621;SDS011;71029;50.742;7.090;2023-07-29T08:36:44;6.05;;;1.33;;
81621;SDS011;71029;50.742;7.090;2023-07-29T08:39:11;4.75;;;1.30;;
81621;SDS011;71029;50.742;7.090;2023-07-29T08:41:41;6.13;;;1.67;;
81621;SDS011;71029;50.742;7.090;2023-07-29T08:44:20;4.15;;;1.23;;
81621;SDS011;71029;50.742;7.090;2023-07-29T08:46:51;3.55;;;1.83;;
81621;SDS011;71029;50.742;7.090;2023-07-29T08:49:18;4.93;;;1.27;;
81621;SDS011;71029;50.742;7.090;2023-07-29T08:51:46;2.67;;;1.05;;
81621;SDS011;71029;50.742;7.090;2023-07-29T08:56:41;3.15;;;0.95;;
81621;SDS011;71029;50.742;7.090;2023-07-29T08:59:08;2.38;;;0.95;;
81621;SDS011;71029;50.742;7.090;2023-07-29T09:01:38;3.60;;;1.13;;
81621;SDS011;71029;50.742;7.090;2023-07-29T09:04:04;5.70;;;1.02;;
81621;SDS011;71029;50.742;7.090;2023-07-29T09:06:32;3.47;;;1.27;;
81621;SDS011;71029;50.742;7.090;2023-07-29T09:09:00;2.15;;;1.02;;
81621;SDS011;71029;50.742;7.090;2023-07-29T09:11:27;2.25;;;1.02;;
81621;SDS011;71029;50.742;7.090;2023-07-29T09:13:54;3.05;;;1.00;;
81621;SDS011;71029;50.742;7.090;2023-07-29T09:16:21;2.20;;;0.93;;
81621;SDS011;71029;50.742;7.090;2023-07-29T09:18:49;2.47;;;1.02;;
81621;SDS011;71029;50.742;7.090;2023-07-29T09:21:17;4.97;;;1.10;;
81621;SDS011;71029;50.742;7.090;2023-07-29T09:23:44;1.70;;;1.13;;
81621;SDS011;71029;50.742;7.090;2023-07-29T09:26:11;3.50;;;1.33;;
81621;SDS011;71029;50.742;7.090;2023-07-29T09:28:38;3.35;;;1.00;;
81621;SDS011;71029;50.742;7.090;2023-07-29T09:31:06;3.78;;;1.05;;
81621;SDS011;71029;50.742;7.090;2023-07-29T09:33:34;2.30;;;0.88;;
81621;SDS011;71029;50.742;7.090;2023-07-29T09:36:09;1.35;;;0.85;;
81621;SDS011;71029;50.742;7.090;2023-07-29T09:38:36;2.33;;;0.93;;
81621;SDS011;71029;50.742;7.090;2023-07-29T09:41:03;4.93;;;1.00;;
81621;SDS011;71029;50.742;7.090;2023-07-29T09:43:30;2.22;;;1.05;;
81621;SDS011;71029;50.742;7.090;2023-07-29T09:46:01;4.25;;;1.23;;
81621;SDS011;71029;50.742;7.090;2023-07-29T09:48:32;2.85;;;1.23;;
81621;SDS011;71029;50.742;7.090;2023-07-29T09:51:09;1.60;;;0.88;;
81621;SDS011;71029;50.742;7.090;2023-07-29T09:53:43;2.83;;;1.02;;
81621;SDS011;71029;50.742;7.090;2023-07-29T09:56:13;1.73;;;0.63;;
81621;SDS011;71029;50.742;7.090;2023-07-29T09:58:40;2.58;;;1.20;;
81621;SDS011;71029;50.742;7.090;2023-07-29T10:01:09;1.80;;;1.02;;
81621;SDS011;71029;50.742;7.090;2023-07-29T10:03:36;2.30;;;1.20;;
81621;SDS011;71029;50.742;7.090;2023-07-29T10:06:04;2.00;;;1.20;;
81621;SDS011;71029;50.742;7.090;2023-07-29T10:08:31;1.52;;;0.82;;
81621;SDS011;71029;50.742;7.090;2023-07-29T10:10:59;1.70;;;0.73;;
81621;SDS011;71029;50.742;7.090;2023-07-29T10:13:26;2.15;;;1.00;;
81621;SDS011;71029;50.742;7.090;2023-07-29T10:15:54;2.38;;;0.90;;
81621;SDS011;71029;50.742;7.090;2023-07-29T10:18:22;3.00;;;0.85;;
81621;SDS011;71029;50.742;7.090;2023-07-29T10:20:50;2.38;;;0.85;;
81621;SDS011;71029;50.742;7.090;2023-07-29T10:23:19;2.67;;;0.80;;
81621;SDS011;71029;50.742;7.090;2023-07-29T10:25:50;1.58;;;0.82;;
81621;SDS011;71029;50.742;7.090;2023-07-29T10:28:31;1.98;;;1.20;;
81621;SDS011;71029;50.742;7.090;2023-07-29T10:30:59;1.45;;;0.73;;
81621;SDS011;71029;50.742;7.090;2023-07-29T10:33:26;2.80;;;1.15;;
81621;SDS011;71029;50.742;7.090;2023-07-29T10:35:53;2.35;;;1.02;;
81621;SDS011;71029;50.742;7.090;2023-07-29T10:38:21;2.10;;;1.10;;
81621;SDS011;71029;50.742;7.090;2023-07-29T10:40:53;1.98;;;1.23;;
81621;SDS011;71029;50.742;7.090;2023-07-29T10:43:31;3.72;;;1.40;;
81621;SDS011;71029;50.742;7.090;2023-07-29T10:46:14;2.10;;;1.10;;
81621;SDS011;71029;50.742;7.090;2023-07-29T10:51:30;2.35;;;1.00;;
81621;SDS011;71029;50.742;7.090;2023-07-29T10:54:02;1.85;;;1.00;;
81621;SDS011;71029;50.742;7.090;2023-07-29T10:56:36;2.25;;;1.00;;
81621;SDS011;71029;50.742;7.090;2023-07-29T11:01:39;3.38;;;1.35;;
81621;SDS011;71029;50.742;7.090;2023-07-29T11:04:28;3.03;;;1.30;;
81621;SDS011;71029;50.742;7.090;2023-07-29T11:09:53;9.40;;;3.20;;
81621;SDS011;71029;50.742;7.090;2023-07-29T11:12:38;10.02;;;2.75;;
81621;SDS011;71029;50.742;7.090;2023-07-29T11:20:09;6.18;;;2.13;;
81621;SDS011;71029;50.742;7.090;2023-07-29T11:22:36;5.72;;;2.03;;
81621;SDS011;71029;50.742;7.090;2023-07-29T11:25:03;5.88;;;1.92;;
81621;SDS011;71029;50.742;7.090;2023-07-29T11:27:31;6.50;;;1.88;;
81621;SDS011;71029;50.742;7.090;2023-07-29T11:30:01;3.95;;;1.95;;
81621;SDS011;71029;50.742;7.090;2023-07-29T11:32:31;4.35;;;1.58;;
81621;SDS011;71029;50.742;7.090;2023-07-29T11:35:02;3.80;;;1.85;;
81621;SDS011;71029;50.742;7.090;2023-07-29T11:37:36;6.28;;;2.10;;
81621;SDS011;71029;50.742;7.090;2023-07-29T11:40:04;3.90;;;1.45;;
81621;SDS011;71029;50.742;7.090;2023-07-29T11:42:32;4.22;;;1.92;;
81621;SDS011;71029;50.742;7.090;2023-07-29T11:45:00;3.65;;;1.70;;
81621;SDS011;71029;50.742;7.090;2023-07-29T11:47:28;4.13;;;1.98;;
81621;SDS011;71029;50.742;7.090;2023-07-29T11:49:57;3.90;;;1.77;;
81621;SDS011;71029;50.742;7.090;2023-07-29T11:52:25;3.40;;;1.52;;
81621;SDS011;71029;50.742;7.090;2023-07-29T11:57:20;3.95;;;1.63;;
81621;SDS011;71029;50.742;7.090;2023-07-29T11:59:47;3.50;;;1.67;;
81621;SDS011;71029;50.742;7.090;2023-07-29T12:02:15;3.70;;;1.52;;
81621;SDS011;71029;50.742;7.090;2023-07-29T12:04:44;3.13;;;1.50;;
81621;SDS011;71029;50.742;7.090;2023-07-29T12:07:12;2.88;;;1.23;;
81621;SDS011;71029;50.742;7.090;2023-07-29T12:09:41;3.55;;;1.58;;
81621;SDS011;71029;50.742;7.090;2023-07-29T12:12:08;1.98;;;1.38;;
81621;SDS011;71029;50.742;7.090;2023-07-29T12:14:35;5.63;;;1.60;;
81621;SDS011;71029;50.742;7.090;2023-07-29T12:17:02;3.25;;;1.42;;
81621;SDS011;71029;50.742;7.090;2023-07-29T12:19:31;5.40;;;1.65;;
81621;SDS011;71029;50.742;7.090;2023-07-29T12:22:05;3.95;;;1.40;;
81621;SDS011;71029;50.742;7.090;2023-07-29T12:24:33;2.63;;;1.33;;
81621;SDS011;71029;50.742;7.090;2023-07-29T12:27:01;2.78;;;1.17;;
81621;SDS011;71029;50.742;7.090;2023-07-29T12:29:28;3.15;;;1.50;;
81621;SDS011;71029;50.742;7.090;2023-07-29T12:32:02;3.35;;;1.40;;
81621;SDS011;71029;50.742;7.090;2023-07-29T12:34:29;3.53;;;1.25;;
81621;SDS011;71029;50.742;7.090;2023-07-29T12:36:58;1.88;;;1.10;;
81621;SDS011;71029;50.742;7.090;2023-07-29T12:39:26;2.42;;;1.70;;
81621;SDS011;71029;50.742;7.090;2023-07-29T12:41:54;5.57;;;1.30;;
81621;SDS011;71029;50.742;7.090;2023-07-29T12:44:31;5.65;;;1.77;;
81621;SDS011;71029;50.742;7.090;2023-07-29T12:47:02;4.43;;;1.40;;
81621;SDS011;71029;50.742;7.090;2023-07-29T12:49:31;3.13;;;1.23;;
81621;SDS011;71029;50.742;7.090;2023-07-29T12:51:59;3.50;;;1.23;;
81621;SDS011;71029;50.742;7.090;2023-07-29T12:54:25;3.65;;;1.38;;
81621;SDS011;71029;50.742;7.090;2023-07-29T12:56:52;4.38;;;1.50;;
81621;SDS011;71029;50.742;7.090;2023-07-29T12:59:19;2.53;;;1.30;;
81621;SDS011;71029;50.742;7.090;2023-07-29T13:01:45;3.40;;;1.33;;
81621;SDS011;71029;50.742;7.090;2023-07-29T13:04:12;3.08;;;1.42;;
81621;SDS011;71029;50.742;7.090;2023-07-29T13:06:38;2.80;;;1.20;;
81621;SDS011;71029;50.742;7.090;2023-07-29T13:09:06;3.03;;;1.25;;
81621;SDS011;71029;50.742;7.090;2023-07-29T13:11:32;2.75;;;1.55;;
81621;SDS011;71029;50.742;7.090;2023-07-29T13:13:59;3.60;;;1.35;;
81621;SDS011;71029;50.742;7.090;2023-07-29T13:16:30;2.42;;;1.02;;
81621;SDS011;71029;50.742;7.090;2023-07-29T13:18:57;2.13;;;1.20;;
81621;SDS011;71029;50.742;7.090;2023-07-29T13:21:24;3.20;;;1.23;;
81621;SDS011;71029;50.742;7.090;2023-07-29T13:23:51;1.60;;;1.02;;
81621;SDS011;71029;50.742;7.090;2023-07-29T13:26:18;3.50;;;1.60;;
81621;SDS011;71029;50.742;7.090;2023-07-29T13:28:45;3.08;;;1.27;;
81621;SDS011;71029;50.742;7.090;2023-07-29T13:31:11;2.30;;;1.20;;
81621;SDS011;71029;50.742;7.090;2023-07-29T13:33:39;2.65;;;1.20;;
81621;SDS011;71029;50.742;7.090;2023-07-29T13:36:05;4.45;;;1.10;;
81621;SDS011;71029;50.742;7.090;2023-07-29T13:38:32;2.83;;;1.20;;
81621;SDS011;71029;50.742;7.090;2023-07-29T13:40:59;4.85;;;1.23;;
81621;SDS011;71029;50.742;7.090;2023-07-29T13:43:26;4.50;;;1.63;;
81621;SDS011;71029;50.742;7.090;2023-07-29T13:45:52;4.50;;;1.30;;
81621;SDS011;71029;50.742;7.090;2023-07-29T13:48:19;3.38;;;1.52;;
81621;SDS011;71029;50.742;7.090;2023-07-29T13:50:46;5.57;;;1.33;;
81621;SDS011;71029;50.742;7.090;2023-07-29T13:53:12;3.10;;;1.35;;
81621;SDS011;71029;50.742;7.090;2023-07-29T13:55:39;5.30;;;1.33;;
81621;SDS011;71029;50.742;7.090;2023-07-29T13:58:05;3.08;;;1.20;;
81621;SDS011;71029;50.742;7.090;2023-07-29T14:00:32;3.83;;;0.98;;
81621;SDS011;71029;50.742;7.090;2023-07-29T14:02:59;5.93;;;1.30;;
81621;SDS011;71029;50.742;7.090;2023-07-29T14:05:26;3.40;;;1.52;;
81621;SDS011;71029;50.742;7.090;2023-07-29T14:07:52;2.33;;;1.17;;
81621;SDS011;71029;50.742;7.090;2023-07-29T14:10:19;2.83;;;1.15;;
81621;SDS011;71029;50.742;7.090;2023-07-29T14:12:45;2.67;;;1.10;;
81621;SDS011;71029;50.742;7.090;2023-07-29T14:15:12;4.65;;;1.58;;
81621;SDS011;71029;50.742;7.090;2023-07-29T14:17:39;2.83;;;1.20;;
81621;SDS011;71029;50.742;7.090;2023-07-29T14:20:06;7.55;;;1.60;;
81621;SDS011;71029;50.742;7.090;2023-07-29T14:22:33;8.85;;;1.48;;
81621;SDS011;71029;50.742;7.090;2023-07-29T14:25:00;7.93;;;1.80;;
81621;SDS011;71029;50.742;7.090;2023-07-29T14:27:27;6.07;;;1.50;;
81621;SDS011;71029;50.742;7.090;2023-07-29T14:29:54;5.88;;;1.38;;
81621;SDS011;71029;50.742;7.090;2023-07-29T14:32:21;7.95;;;1.50;;
81621;SDS011;71029;50.742;7.090;2023-07-29T14:34:49;10.60;;;1.50;;
81621;SDS011;71029;50.742;7.090;2023-07-29T14:37:16;6.05;;;1.70;;
81621;SDS011;71029;50.742;7.090;2023-07-29T14:39:43;6.25;;;1.63;;
81621;SDS011;71029;50.742;7.090;2023-07-29T14:42:09;4.97;;;1.17;;
81621;SDS011;71029;50.742;7.090;2023-07-29T14:44:36;12.13;;;1.75;;
81621;SDS011;71029;50.742;7.090;2023-07-29T14:47:02;6.32;;;1.63;;
81621;SDS011;71029;50.742;7.090;2023-07-29T14:49:29;6.05;;;1.83;;
81621;SDS011;71029;50.742;7.090;2023-07-29T14:51:55;5.03;;;1.20;;
81621;SDS011;71029;50.742;7.090;2023-07-29T14:54:22;5.32;;;1.75;;
81621;SDS011;71029;50.742;7.090;2023-07-29T14:56:48;3.40;;;1.50;;
81621;SDS011;71029;50.742;7.090;2023-07-29T14:59:15;3.97;;;1.15;;
81621;SDS011;71029;50.742;7.090;2023-07-29T15:01:42;3.55;;;1.27;;
81621;SDS011;71029;50.742;7.090;2023-07-29T15:04:08;3.50;;;1.58;;
81621;SDS011;71029;50.742;7.090;2023-07-29T15:06:35;3.13;;;1.65;;
81621;SDS011;71029;50.742;7.090;2023-07-29T15:09:01;8.80;;;1.65;;
81621;SDS011;71029;50.742;7.090;2023-07-29T15:11:28;3.20;;;1.30;;
81621;SDS011;71029;50.742;7.090;2023-07-29T15:13:55;6.43;;;1.65;;
81621;SDS011;71029;50.742;7.090;2023-07-29T15:16:22;10.05;;;3.00;;